Time;durP1;ratioP1;P1;durP2;ratioP2;P2;SDS_P1;SDS_P2;PMS_P1;PMS_P2;Temp;Humidity;BMP_temperature;BMP_pressure;BME280_temperature;BME280_humidity;BME280_pressure;Samples;Min_cycle;Max_cycle;Signal;HPM_P1;HPM_P2
2023/10/01 00:01:43;;;;;;;0.10;0.10;;;12.40;99.90;;;;;;4962727;28;20210;-81
2023/10/01 00:04:10;;;;;;;0.10;0.10;;;12.40;99.90;;;;;;4961312;28;20199;-81
2023/10/01 00:06:36;;;;;;;0.10;0.10;;;12.30;99.90;;;;;;4960598;28;20183;-81
2023/10/01 00:09:05;;;;;;;0.10;0.10;;;12.30;99.90;;;;;;4962027;28;20687;-81
2023/10/01 00:11:38;;;;;;;0.10;0.10;;;12.30;99.90;;;;;;4962435;28;20256;-81
2023/10/01 00:14:06;;;;;;;0.10;0.10;;;12.30;99.90;;;;;;4960806;28;20211;-81
2023/10/01 00:16:32;;;;;;;0.10;0.10;;;12.30;99.90;;;;;;4959948;28;20193;-81
2023/10/01 00:18:59;;;;;;;0.10;0.10;;;12.40;99.90;;;;;;4960471;28;20192;-81
2023/10/01 00:21:27;;;;;;;0.10;0.10;;;12.50;99.90;;;;;;4958937;28;20319;-81
2023/10/01 00:23:54;;;;;;;0.00;0.00;;;12.60;99.90;;;;;;4959430;28;20553;-81
2023/10/01 00:26:19;;;;;;;0.10;0.10;;;12.60;99.90;;;;;;4957776;28;20193;-81
2023/10/01 00:28:45;;;;;;;0.10;0.10;;;12.50;99.90;;;;;;4960715;28;20183;-81
2023/10/01 00:31:11;;;;;;;0.00;0.00;;;12.40;99.90;;;;;;4960292;28;20217;-81
2023/10/01 00:33:36;;;;;;;0.10;0.10;;;12.20;99.90;;;;;;4960020;28;20309;-80
2023/10/01 00:36:03;;;;;;;0.10;0.10;;;12.20;99.90;;;;;;4961151;28;20213;-81
2023/10/01 00:38:28;;;;;;;0.10;0.10;;;12.30;99.90;;;;;;4959418;28;20269;-81
2023/10/01 00:40:54;;;;;;;0.10;0.10;;;12.40;99.90;;;;;;4958084;28;20213;-81
2023/10/01 00:43:29;;;;;;;0.10;0.10;;;12.40;99.90;;;;;;4961880;28;20194;-81
2023/10/01 00:45:56;;;;;;;0.10;0.10;;;12.40;99.90;;;;;;4961862;28;20218;-82
2023/10/01 00:48:23;;;;;;;0.10;0.10;;;12.20;99.90;;;;;;4961058;28;20325;-81
2023/10/01 00:50:50;;;;;;;0.10;0.10;;;12.20;99.90;;;;;;4959667;28;20239;-81
2023/10/01 00:53:16;;;;;;;0.07;0.07;;;12.30;99.90;;;;;;4961346;28;20552;-81
2023/10/01 00:55:42;;;;;;;0.10;0.10;;;12.30;99.90;;;;;;4959771;28;20236;-81
2023/10/01 00:58:10;;;;;;;0.10;0.10;;;12.30;99.90;;;;;;4960115;28;20287;-81
2023/10/01 01:00:37;;;;;;;0.10;0.10;;;12.30;99.90;;;;;;4961995;28;20304;-81
2023/10/01 01:05:35;;;;;;;0.10;0.10;;;12.40;99.90;;;;;;4962523;28;20189;-81
2023/10/01 01:08:20;;;;;;;0.10;0.10;;;12.30;99.90;;;;;;4962891;28;20673;-81
2023/10/01 01:10:51;;;;;;;0.10;0.10;;;12.20;99.90;;;;;;4961562;28;20240;-81
2023/10/01 01:13:17;;;;;;;0.10;0.10;;;12.00;99.90;;;;;;4960434;28;20345;-81
2023/10/01 01:15:46;;;;;;;0.10;0.10;;;11.90;99.90;;;;;;4957979;28;20710;-81
2023/10/01 01:18:20;;;;;;;0.10;0.10;;;11.90;99.90;;;;;;4959617;28;20301;-81
2023/10/01 01:20:46;;;;;;;0.10;0.10;;;12.00;99.90;;;;;;4961723;28;20953;-81
2023/10/01 01:23:21;;;;;;;0.10;0.10;;;12.10;99.90;;;;;;4959097;28;20245;-81
2023/10/01 01:25:49;;;;;;;0.00;0.00;;;12.10;99.90;;;;;;4958312;28;20192;-81
2023/10/01 01:28:24;;;;;;;0.10;0.10;;;12.20;99.90;;;;;;4963997;28;20344;-80
2023/10/01 01:30:53;;;;;;;0.10;0.10;;;12.10;99.90;;;;;;4961817;28;20574;-81
2023/10/01 01:33:26;;;;;;;0.10;0.10;;;12.20;99.90;;;;;;4956936;28;20191;-80
2023/10/01 01:35:53;;;;;;;0.10;0.10;;;12.20;99.90;;;;;;4957335;28;20195;-81
2023/10/01 01:38:20;;;;;;;0.10;0.10;;;12.20;99.90;;;;;;4957141;28;20298;-81
2023/10/01 01:40:47;;;;;;;0.10;0.10;;;12.20;99.90;;;;;;4957737;28;20591;-81
2023/10/01 01:43:16;;;;;;;0.10;0.10;;;12.30;99.90;;;;;;4959471;28;20876;-81
2023/10/01 01:45:47;;;;;;;0.00;0.00;;;12.30;99.90;;;;;;4959880;28;20202;-81
2023/10/01 01:48:30;;;;;;;0.10;0.10;;;12.30;99.90;;;;;;4960036;28;20260;-81
2023/10/01 01:51:00;;;;;;;0.10;0.10;;;12.10;99.90;;;;;;4958499;28;20600;-80
2023/10/01 01:53:36;;;;;;;0.10;0.10;;;12.20;99.90;;;;;;4959703;28;20182;-81
2023/10/01 01:56:10;;;;;;;0.10;0.10;;;12.20;99.90;;;;;;4960986;28;20183;-81
2023/10/01 01:58:37;;;;;;;0.10;0.10;;;12.30;99.90;;;;;;4962541;28;20187;-81
2023/10/01 02:01:17;;;;;;;0.10;0.10;;;12.30;99.90;;;;;;4958352;28;20220;-80
2023/10/01 02:03:46;;;;;;;0.10;0.10;;;12.30;99.90;;;;;;4959876;28;20609;-81
2023/10/01 02:06:13;;;;;;;0.10;0.10;;;12.30;99.90;;;;;;4960054;28;20643;-81
2023/10/01 02:08:58;;;;;;;0.10;0.10;;;12.30;99.90;;;;;;4962184;28;20265;-80
2023/10/01 02:11:25;;;;;;;0.07;0.07;;;12.30;99.90;;;;;;4974536;28;20215;-81
2023/10/01 02:13:54;;;;;;;0.10;0.10;;;12.30;99.90;;;;;;4960683;28;20553;-81
2023/10/01 02:19:17;;;;;;;0.10;0.10;;;12.00;99.90;;;;;;4960767;28;20176;-81
2023/10/01 02:22:05;;;;;;;0.10;0.10;;;12.00;99.90;;;;;;4960751;28;21668;-80
2023/10/01 02:27:14;;;;;;;0.10;0.10;;;12.10;99.90;;;;;;4960697;28;20180;-80
2023/10/01 02:30:11;;;;;;;0.10;0.10;;;12.00;99.90;;;;;;4959918;28;20184;-80
2023/10/01 02:32:32;;;;;;;0.10;0.10;;;11.90;99.90;;;;;;4957928;28;20207;-80
2023/10/01 02:34:58;;;;;;;0.10;0.10;;;11.80;99.90;;;;;;4957620;28;20261;-81
2023/10/01 02:37:29;;;;;;;0.03;0.03;;;11.80;99.90;;;;;;4957810;28;20530;-80
2023/10/01 02:40:01;;;;;;;0.10;0.10;;;11.80;99.90;;;;;;4958582;28;20316;-80
2023/10/01 02:42:30;;;;;;;0.10;0.10;;;12.00;99.90;;;;;;4958336;28;20188;-80
2023/10/01 02:44:55;;;;;;;0.10;0.10;;;12.10;99.90;;;;;;4958523;28;20181;-80
2023/10/01 02:47:23;;;;;;;0.10;0.10;;;12.10;99.90;;;;;;4958672;28;20189;-81
2023/10/01 02:49:54;;;;;;;0.10;0.10;;;12.20;99.90;;;;;;4958691;28;20264;-80
2023/10/01 02:52:26;;;;;;;0.00;0.00;;;12.20;99.90;;;;;;4956207;28;20249;-80
2023/10/01 02:54:57;;;;;;;0.10;0.10;;;12.20;99.90;;;;;;4960092;28;20214;-80
2023/10/01 02:57:23;;;;;;;0.10;0.10;;;12.20;99.90;;;;;;4959369;28;20214;-81
2023/10/01 03:00:20;;;;;;;0.10;0.10;;;12.10;99.90;;;;;;4959546;28;20672;-80
2023/10/01 03:02:51;;;;;;;0.00;0.00;;;12.00;99.90;;;;;;4959147;28;20199;-80
2023/10/01 03:05:23;;;;;;;0.07;0.07;;;12.00;99.90;;;;;;4958471;28;20562;-80
2023/10/01 03:07:51;;;;;;;0.10;0.10;;;12.00;99.90;;;;;;4961675;28;20196;-80
2023/10/01 03:10:26;;;;;;;0.10;0.10;;;12.00;99.90;;;;;;4961072;28;20218;-80
2023/10/01 03:12:57;;;;;;;0.00;0.00;;;12.00;99.90;;;;;;4961011;28;20185;-81
2023/10/01 03:15:24;;;;;;;0.10;0.10;;;12.00;99.90;;;;;;4977227;28;20204;-80
2023/10/01 03:17:57;;;;;;;0.10;0.10;;;11.90;99.90;;;;;;4961841;28;20190;-80
2023/10/01 03:26:00;;;;;;;0.10;0.10;;;11.90;99.90;;;;;;4962686;28;20173;-80
2023/10/01 03:28:28;;;;;;;0.10;0.10;;;11.90;99.90;;;;;;4962631;28;20171;-81
2023/10/01 03:31:08;;;;;;;0.10;0.10;;;12.00;99.90;;;;;;4961315;28;20359;-80
2023/10/01 03:33:40;;;;;;;0.10;0.10;;;12.00;99.90;;;;;;4962674;28;20235;-80
2023/10/01 03:36:09;;;;;;;0.10;0.10;;;12.00;99.90;;;;;;4961965;28;20900;-81
2023/10/01 03:38:44;;;;;;;0.10;0.10;;;12.00;99.90;;;;;;4959463;28;20204;-81
2023/10/01 03:41:20;;;;;;;0.00;0.00;;;12.00;99.90;;;;;;4963523;28;20216;-81
2023/10/01 03:43:47;;;;;;;0.10;0.10;;;11.90;99.90;;;;;;4960826;28;20189;-81
2023/10/01 03:49:00;;;;;;;0.10;0.10;;;11.90;99.90;;;;;;4959554;28;20294;-81
2023/10/01 03:54:26;;;;;;;0.10;0.10;;;11.80;99.90;;;;;;4962881;28;20619;-81
2023/10/01 03:56:58;;;;;;;0.10;0.10;;;11.80;99.90;;;;;;4961848;28;20187;-81
2023/10/01 03:59:28;;;;;;;0.00;0.00;;;11.80;99.90;;;;;;4961735;28;20190;-81
2023/10/01 04:02:02;;;;;;;0.10;0.10;;;11.80;99.90;;;;;;4961674;28;20226;-80
2023/10/01 04:07:15;;;;;;;0.07;0.07;;;11.80;99.90;;;;;;4962179;28;20248;-81
2023/10/01 04:09:46;;;;;;;0.10;0.10;;;11.90;99.90;;;;;;4961545;28;20559;-81
2023/10/01 04:12:33;;;;;;;0.10;0.10;;;11.90;99.90;;;;;;4960117;28;20185;-80
2023/10/01 04:15:02;;;;;;;0.10;0.10;;;11.80;99.90;;;;;;4963855;28;20760;-80
2023/10/01 04:17:28;;;;;;;0.10;0.10;;;11.90;99.90;;;;;;4960583;28;20205;-80
2023/10/01 04:19:57;;;;;;;0.10;0.10;;;11.80;99.90;;;;;;4962101;28;20182;-80
2023/10/01 04:22:25;;;;;;;0.10;0.10;;;11.80;99.90;;;;;;4960566;28;20208;-81
2023/10/01 04:25:01;;;;;;;0.10;0.10;;;11.80;99.90;;;;;;4976106;28;20246;-81
2023/10/01 04:27:30;;;;;;;0.10;0.10;;;11.80;99.90;;;;;;4961962;28;20187;-81
2023/10/01 04:30:00;;;;;;;0.00;0.00;;;11.80;99.90;;;;;;4957718;28;20209;-80
2023/10/01 04:32:27;;;;;;;0.10;0.10;;;11.80;99.90;;;;;;4960818;28;20259;-80
2023/10/01 04:35:01;;;;;;;0.10;0.10;;;11.80;99.90;;;;;;4959503;28;20654;-81
2023/10/01 04:37:41;;;;;;;0.00;0.00;;;11.80;99.90;;;;;;4956032;28;20275;-81
2023/10/01 04:42:56;;;;;;;0.10;0.10;;;11.80;99.90;;;;;;4961012;28;20292;-80
2023/10/01 04:45:33;;;;;;;0.10;0.10;;;11.70;99.90;;;;;;4959298;28;20228;-81
2023/10/01 04:48:02;;;;;;;0.00;0.00;;;11.60;99.90;;;;;;4959712;28;20192;-81
2023/10/01 04:50:29;;;;;;;0.10;0.10;;;11.60;99.90;;;;;;4961568;28;20196;-80
2023/10/01 04:52:59;;;;;;;0.00;0.00;;;11.70;99.90;;;;;;4959965;28;20268;-80
2023/10/01 04:55:28;;;;;;;0.10;0.10;;;11.70;99.90;;;;;;4962569;28;20534;-80
2023/10/01 04:57:57;;;;;;;0.10;0.10;;;11.70;99.90;;;;;;4958961;28;20280;-81
2023/10/01 05:00:24;;;;;;;0.10;0.10;;;11.80;99.90;;;;;;4959869;28;20280;-81
2023/10/01 05:02:51;;;;;;;0.10;0.10;;;11.80;99.90;;;;;;4961681;28;20711;-81
2023/10/01 05:05:26;;;;;;;0.10;0.10;;;11.80;99.90;;;;;;4962324;28;20195;-82
2023/10/01 05:07:55;;;;;;;0.10;0.10;;;11.70;99.90;;;;;;4958699;28;20193;-81
2023/10/01 05:10:21;;;;;;;0.10;0.10;;;11.80;99.90;;;;;;4961762;28;20307;-81
2023/10/01 05:12:46;;;;;;;0.10;0.10;;;11.80;99.90;;;;;;4960298;28;20640;-81
2023/10/01 05:15:25;;;;;;;0.10;0.10;;;11.80;99.90;;;;;;4960985;28;20199;-80
2023/10/01 05:17:54;;;;;;;0.10;0.10;;;11.70;99.90;;;;;;4959482;28;20204;-80
2023/10/01 05:20:19;;;;;;;0.10;0.10;;;11.60;99.90;;;;;;4961556;28;20212;-81
2023/10/01 05:22:50;;;;;;;0.10;0.10;;;11.70;99.90;;;;;;4959881;28;20303;-80
2023/10/01 05:25:18;;;;;;;0.10;0.10;;;11.70;99.90;;;;;;4957403;28;20184;-81
2023/10/01 05:27:45;;;;;;;0.10;0.10;;;11.80;99.90;;;;;;4960054;28;20266;-81
2023/10/01 05:30:36;;;;;;;0.10;0.10;;;11.80;99.90;;;;;;4958819;28;20242;-80
2023/10/01 05:33:05;;;;;;;0.10;0.10;;;11.90;99.90;;;;;;4958644;28;20218;-81
2023/10/01 05:35:48;;;;;;;0.10;0.10;;;11.90;99.90;;;;;;4960969;28;20264;-81
2023/10/01 05:38:16;;;;;;;0.10;0.10;;;11.90;99.90;;;;;;4959269;28;20192;-81
2023/10/01 05:40:44;;;;;;;0.10;0.10;;;11.90;99.90;;;;;;4956262;28;20209;-81
2023/10/01 05:43:13;;;;;;;0.00;0.00;;;11.90;99.90;;;;;;4957304;28;20674;-81
2023/10/01 05:45:41;;;;;;;0.00;0.00;;;11.90;99.90;;;;;;4960306;28;20280;-81
2023/10/01 05:48:10;;;;;;;0.10;0.10;;;12.00;99.90;;;;;;4960660;28;20184;-81
2023/10/01 05:50:41;;;;;;;0.10;0.10;;;12.00;99.90;;;;;;4960247;28;20710;-81
2023/10/01 05:53:09;;;;;;;0.00;0.00;;;12.00;99.90;;;;;;4957484;28;20180;-82
2023/10/01 05:55:35;;;;;;;0.10;0.10;;;12.00;99.90;;;;;;4972696;28;20251;-82
2023/10/01 05:58:12;;;;;;;0.10;0.10;;;12.00;99.90;;;;;;4958077;28;20188;-82
2023/10/01 06:00:46;;;;;;;0.00;0.00;;;12.00;99.90;;;;;;4959049;28;20726;-81
2023/10/01 06:03:15;;;;;;;0.10;0.10;;;12.10;99.90;;;;;;4959936;28;20196;-81
2023/10/01 06:08:14;;;;;;;0.10;0.10;;;12.10;99.90;;;;;;4959627;28;20275;-81
2023/10/01 06:10:59;;;;;;;0.00;0.00;;;12.20;99.90;;;;;;4959355;28;20276;-81
2023/10/01 06:13:27;;;;;;;0.10;0.10;;;12.20;99.90;;;;;;4960027;28;20649;-81
2023/10/01 06:15:56;;;;;;;0.10;0.10;;;12.30;99.90;;;;;;4957893;28;20221;-81
2023/10/01 06:18:22;;;;;;;0.10;0.10;;;12.30;99.90;;;;;;4961315;28;20267;-80
2023/10/01 06:20:50;;;;;;;0.00;0.00;;;12.30;99.90;;;;;;4960638;28;20260;-80
2023/10/01 06:23:16;;;;;;;0.00;0.00;;;12.30;99.90;;;;;;4959520;28;20188;-80
2023/10/01 06:25:43;;;;;;;0.00;0.00;;;12.30;99.90;;;;;;4959367;28;20271;-80
2023/10/01 06:28:09;;;;;;;0.10;0.10;;;12.30;99.90;;;;;;4960599;28;20186;-81
2023/10/01 06:30:43;;;;;;;0.10;0.10;;;12.50;99.90;;;;;;4959984;28;20211;-81
2023/10/01 06:33:24;;;;;;;0.10;0.10;;;12.60;99.90;;;;;;4960977;28;20763;-80
2023/10/01 06:38:41;;;;;;;0.10;0.10;;;12.80;99.90;;;;;;4962600;28;20782;-80
2023/10/01 06:41:13;;;;;;;0.10;0.10;;;12.80;99.90;;;;;;4964662;28;20219;-81
2023/10/01 06:43:49;;;;;;;0.00;0.00;;;12.90;99.90;;;;;;4964086;28;20182;-80
2023/10/01 06:46:19;;;;;;;0.10;0.10;;;13.00;99.90;;;;;;4963942;28;20319;-80
2023/10/01 06:48:47;;;;;;;0.10;0.10;;;13.00;99.90;;;;;;4964901;28;20177;-80
2023/10/01 06:51:21;;;;;;;0.10;0.10;;;13.00;99.90;;;;;;4998278;28;21194;-81
2023/10/01 06:53:58;;;;;;;0.10;0.10;;;13.10;99.90;;;;;;4963931;28;20180;-81
2023/10/01 06:56:24;;;;;;;0.10;0.10;;;13.20;99.90;;;;;;4962779;28;20553;-81
2023/10/01 07:01:42;;;;;;;0.10;0.10;;;13.40;99.90;;;;;;4965606;28;20217;-81
2023/10/01 07:04:11;;;;;;;0.07;0.07;;;13.40;99.90;;;;;;4966807;28;20213;-81
2023/10/01 07:06:39;;;;;;;0.10;0.10;;;13.60;99.90;;;;;;4964480;28;20228;-82
2023/10/01 07:09:24;;;;;;;0.10;0.10;;;13.70;99.90;;;;;;4962562;28;20719;-81
2023/10/01 07:11:57;;;;;;;0.10;0.10;;;13.80;99.90;;;;;;4962807;28;20211;-81
2023/10/01 07:14:43;;;;;;;0.10;0.10;;;14.00;99.90;;;;;;4963503;28;20181;-81
2023/10/01 07:17:09;;;;;;;0.10;0.10;;;14.30;99.90;;;;;;4959339;28;20184;-81
2023/10/01 07:19:36;;;;;;;0.03;0.03;;;14.40;99.90;;;;;;4962742;28;20191;-81
2023/10/01 07:22:06;;;;;;;0.10;0.10;;;14.50;99.90;;;;;;4961144;28;20299;-81
2023/10/01 07:24:40;;;;;;;0.10;0.10;;;14.60;99.90;;;;;;4963954;28;20324;-81
2023/10/01 07:27:06;;;;;;;0.10;0.10;;;14.70;99.90;;;;;;4962568;28;20180;-81
2023/10/01 07:29:40;;;;;;;0.10;0.10;;;14.90;99.90;;;;;;4958506;28;20292;-80
2023/10/01 07:32:08;;;;;;;0.10;0.10;;;15.10;99.90;;;;;;4950614;28;21135;-81
2023/10/01 07:34:40;;;;;;;0.10;0.10;;;15.20;99.90;;;;;;4960512;28;20203;-81
2023/10/01 07:37:07;;;;;;;0.10;0.10;;;15.40;99.90;;;;;;4956677;28;20718;-82
2023/10/01 07:39:37;;;;;;;0.10;0.10;;;15.60;99.90;;;;;;4963439;28;20595;-81
2023/10/01 07:42:04;;;;;;;0.10;0.10;;;15.70;99.90;;;;;;4963218;28;20220;-80
2023/10/01 07:44:36;;;;;;;0.10;0.10;;;15.80;99.90;;;;;;4979901;28;20270;-81
2023/10/01 07:47:03;;;;;;;0.10;0.10;;;15.80;99.90;;;;;;4961342;28;20754;-81
2023/10/01 07:49:48;;;;;;;0.10;0.10;;;16.00;99.90;;;;;;4962636;28;20206;-81
2023/10/01 07:52:17;;;;;;;0.00;0.00;;;16.20;99.90;;;;;;4959838;28;20195;-81
2023/10/01 07:54:47;;;;;;;0.10;0.10;;;16.30;99.90;;;;;;4962929;28;20192;-80
2023/10/01 07:57:15;;;;;;;0.10;0.10;;;16.30;99.90;;;;;;4958884;28;20188;-81
2023/10/01 07:59:43;;;;;;;0.10;0.10;;;16.40;99.90;;;;;;4961961;28;20188;-81
2023/10/01 08:07:15;;;;;;;0.10;0.10;;;16.60;99.90;;;;;;4964997;28;20184;-81
2023/10/01 08:09:46;;;;;;;0.10;0.10;;;16.80;99.90;;;;;;4964554;28;20301;-80
2023/10/01 08:12:15;;;;;;;0.10;0.10;;;17.00;99.90;;;;;;4963258;28;20243;-81
2023/10/01 08:14:40;;;;;;;0.10;0.10;;;17.10;99.90;;;;;;4964717;28;20281;-81
2023/10/01 08:17:07;;;;;;;0.10;0.10;;;17.20;99.90;;;;;;4964503;28;20271;-81
2023/10/01 08:19:44;;;;;;;0.10;0.10;;;17.40;99.90;;;;;;4962881;28;20196;-81
2023/10/01 08:22:13;;;;;;;0.10;0.10;;;17.30;99.90;;;;;;4962315;28;20215;-81
2023/10/01 08:24:45;;;;;;;0.10;0.10;;;17.40;99.90;;;;;;4957889;28;20196;-81
2023/10/01 08:27:29;;;;;;;0.10;0.10;;;17.50;99.90;;;;;;4961072;28;20185;-81
2023/10/01 08:32:49;;;;;;;0.00;0.00;;;17.60;99.90;;;;;;4963365;28;20237;-81
2023/10/01 08:35:32;;;;;;;0.10;0.10;;;17.70;99.90;;;;;;4962764;28;20189;-81
2023/10/01 08:37:59;;;;;;;0.10;0.10;;;17.90;99.90;;;;;;4961113;28;20185;-81
2023/10/01 08:40:27;;;;;;;0.10;0.10;;;18.10;99.90;;;;;;4963972;28;20246;-81
2023/10/01 08:42:53;;;;;;;0.10;0.10;;;18.20;99.90;;;;;;4962070;28;20187;-81
2023/10/01 08:45:23;;;;;;;0.10;0.10;;;18.20;99.90;;;;;;4961829;28;20549;-81
2023/10/01 08:47:49;;;;;;;0.10;0.10;;;18.20;99.90;;;;;;4963992;28;20181;-81
2023/10/01 08:50:18;;;;;;;0.10;0.10;;;18.30;99.90;;;;;;4960919;28;20213;-80
2023/10/01 08:52:57;;;;;;;0.10;0.10;;;18.70;99.90;;;;;;4960926;28;20184;-80
2023/10/01 08:58:41;;;;;;;0.10;0.10;;;18.80;99.90;;;;;;4959794;28;20267;-81
2023/10/01 09:01:12;;;;;;;0.10;0.10;;;18.90;99.90;;;;;;4961230;28;20263;-80
2023/10/01 09:03:39;;;;;;;0.10;0.10;;;18.80;99.90;;;;;;4959714;28;20206;-81
2023/10/01 09:06:08;;;;;;;0.10;0.10;;;18.70;99.90;;;;;;4962092;28;20184;-81
2023/10/01 09:08:45;;;;;;;0.10;0.10;;;18.90;99.90;;;;;;4961377;28;20177;-81
2023/10/01 09:11:16;;;;;;;0.10;0.10;;;18.90;99.90;;;;;;4961811;28;20209;-81
2023/10/01 09:13:58;;;;;;;0.10;0.10;;;19.10;99.90;;;;;;4962147;28;20192;-81
2023/10/01 09:16:32;;;;;;;0.10;0.10;;;19.20;99.90;;;;;;4960660;28;20215;-81
2023/10/01 09:19:04;;;;;;;0.10;0.10;;;19.20;99.90;;;;;;4962610;28;20197;-81
2023/10/01 09:21:40;;;;;;;0.10;0.10;;;19.30;99.90;;;;;;4968728;28;20219;-81
2023/10/01 09:24:34;;;;;;;0.10;0.10;;;19.50;99.90;;;;;;4965541;28;20172;-81
2023/10/01 09:27:18;;;;;;;0.10;0.10;;;19.60;99.90;;;;;;4962671;28;20190;-81
2023/10/01 09:29:57;;;;;;;0.10;0.10;;;19.90;99.90;;;;;;4953107;28;20255;-80
2023/10/01 09:32:51;;;;;;;0.10;0.10;;;20.10;99.90;;;;;;4958821;28;20779;-81
2023/10/01 09:35:30;;;;;;;0.10;0.10;;;20.20;99.90;;;;;;4958692;28;20231;-81
2023/10/01 09:38:13;;;;;;;0.10;0.10;;;20.20;99.90;;;;;;4963103;28;20230;-81
2023/10/01 09:40:42;;;;;;;0.10;0.10;;;20.10;99.90;;;;;;4961465;28;20212;-81
2023/10/01 09:43:19;;;;;;;0.10;0.10;;;20.10;99.90;;;;;;4962579;28;20179;-81
2023/10/01 09:45:49;;;;;;;0.10;0.10;;;20.10;99.90;;;;;;4957390;28;20189;-81
2023/10/01 09:48:29;;;;;;;0.10;0.10;;;20.30;99.90;;;;;;4958588;28;20182;-81
2023/10/01 09:51:08;;;;;;;0.10;0.10;;;20.40;99.90;;;;;;4963593;28;20209;-81
2023/10/01 09:53:54;;;;;;;0.10;0.10;;;20.40;99.90;;;;;;4959827;28;20835;-81
2023/10/01 09:56:29;;;;;;;0.10;0.10;;;20.60;99.90;;;;;;4961966;28;20255;-81
2023/10/01 09:59:07;;;;;;;0.10;0.10;;;20.70;99.90;;;;;;4961440;28;20698;-81
2023/10/01 10:01:38;;;;;;;0.10;0.10;;;20.90;99.90;;;;;;4955481;28;20845;-82
2023/10/01 10:04:06;;;;;;;0.10;0.10;;;20.80;99.90;;;;;;4954726;28;20228;-81
2023/10/01 10:06:32;;;;;;;0.10;0.10;;;20.80;99.90;;;;;;4960137;28;20249;-81
2023/10/01 10:09:03;;;;;;;0.10;0.10;;;20.90;99.90;;;;;;4955693;28;20181;-82
2023/10/01 10:11:36;;;;;;;0.10;0.10;;;20.90;99.90;;;;;;4958397;28;20282;-82
2023/10/01 10:14:28;;;;;;;0.10;0.10;;;20.70;99.90;;;;;;4959585;28;20188;-81
2023/10/01 10:16:58;;;;;;;0.10;0.10;;;20.90;99.90;;;;;;4957764;28;20196;-81
2023/10/01 10:19:25;;;;;;;0.10;0.10;;;21.20;99.90;;;;;;4956129;28;20565;-81
2023/10/01 10:24:33;;;;;;;0.10;0.10;;;21.50;99.90;;;;;;4959255;28;20192;-81
2023/10/01 10:27:09;;;;;;;0.10;0.10;;;21.70;99.90;;;;;;4959758;28;20187;-81
2023/10/01 10:29:46;;;;;;;0.10;0.10;;;21.60;99.90;;;;;;4957514;28;20655;-81
2023/10/01 10:32:13;;;;;;;0.10;0.10;;;21.30;99.90;;;;;;4957919;28;20193;-81
2023/10/01 10:35:03;;;;;;;0.10;0.10;;;21.60;99.90;;;;;;4959492;28;20303;-81
2023/10/01 10:37:35;;;;;;;0.10;0.10;;;21.80;99.90;;;;;;4958036;28;20664;-81
2023/10/01 10:40:12;;;;;;;0.10;0.10;;;22.00;99.90;;;;;;4961072;28;20210;-82
2023/10/01 10:43:04;;;;;;;0.10;0.10;;;22.10;99.90;;;;;;4960476;28;20235;-82
2023/10/01 10:45:42;;;;;;;0.10;0.10;;;22.10;99.90;;;;;;4959046;28;20305;-82
2023/10/01 10:48:09;;;;;;;0.10;0.10;;;22.10;99.90;;;;;;4964055;28;20173;-80
2023/10/01 10:50:53;;;;;;;0.10;0.10;;;21.40;99.90;;;;;;4960886;28;20214;-81
2023/10/01 10:53:19;;;;;;;0.10;0.10;;;21.30;99.90;;;;;;4959936;28;20624;-82
2023/10/01 10:56:07;;;;;;;1.07;1.07;;;21.30;99.90;;;;;;4958379;28;20923;-81
2023/10/01 10:59:01;;;;;;;0.10;0.10;;;21.60;99.90;;;;;;4957561;28;20269;-82
2023/10/01 11:01:43;;;;;;;0.10;0.10;;;22.10;99.90;;;;;;4963632;28;20574;-82
2023/10/01 11:04:10;;;;;;;0.10;0.10;;;22.20;99.90;;;;;;4965527;28;20203;-82
2023/10/01 11:06:42;;;;;;;0.10;0.10;;;22.20;99.90;;;;;;4972454;28;20242;-82
2023/10/01 11:09:27;;;;;;;0.10;0.10;;;22.50;99.90;;;;;;4978323;28;20177;-83
2023/10/01 11:12:04;;;;;;;0.10;0.10;;;22.30;99.90;;;;;;4961389;28;20716;-82
2023/10/01 11:14:30;;;;;;;0.10;0.10;;;22.40;99.90;;;;;;4959858;28;20185;-83
2023/10/01 11:16:56;;;;;;;0.10;0.10;;;22.70;99.90;;;;;;4961934;28;20189;-82
2023/10/01 11:19:27;;;;;;;0.10;0.10;;;23.00;99.90;;;;;;4964018;28;20192;-82
2023/10/01 11:22:00;;;;;;;0.10;0.10;;;23.10;99.90;;;;;;4972798;28;20696;-81
2023/10/01 11:24:36;;;;;;;0.10;0.10;;;23.10;99.90;;;;;;4972382;28;20660;-82
2023/10/01 11:27:43;;;;;;;0.10;0.10;;;23.20;99.90;;;;;;4960287;28;20195;-81
2023/10/01 11:30:13;;;;;;;0.10;0.10;;;22.80;99.90;;;;;;4963740;28;20205;-82
2023/10/01 11:35:34;;;;;;;0.10;0.10;;;23.10;99.90;;;;;;4962303;28;20235;-81
2023/10/01 11:38:21;;;;;;;0.10;0.10;;;23.10;99.90;;;;;;4962127;28;20185;-82
2023/10/01 11:41:07;;;;;;;0.10;0.10;;;23.10;99.90;;;;;;4962843;28;20219;-82
2023/10/01 11:44:02;;;;;;;0.10;0.10;;;22.40;99.90;;;;;;4964771;28;20189;-82
2023/10/01 11:46:35;;;;;;;0.10;0.10;;;22.30;99.90;;;;;;4961994;28;20181;-82
2023/10/01 11:49:07;;;;;;;0.10;0.10;;;22.90;99.90;;;;;;4994068;28;20189;-82
2023/10/01 11:54:25;;;;;;;0.10;0.10;;;23.20;99.90;;;;;;4962959;28;20193;-82
2023/10/01 11:57:07;;;;;;;0.10;0.10;;;23.30;99.90;;;;;;4962161;28;20676;-83
2023/10/01 11:59:41;;;;;;;0.10;0.10;;;23.40;99.90;;;;;;4959566;28;20242;-82
2023/10/01 12:02:20;;;;;;;0.10;0.10;;;23.60;99.90;;;;;;4962170;28;20212;-82
2023/10/01 12:04:56;;;;;;;0.10;0.10;;;23.60;99.90;;;;;;4962273;28;20181;-82
2023/10/01 12:07:24;;;;;;;0.10;0.10;;;23.10;99.90;;;;;;4960579;28;20181;-82
2023/10/01 12:09:51;;;;;;;0.10;0.10;;;23.10;99.90;;;;;;4959386;28;20221;-83
2023/10/01 12:12:36;;;;;;;0.10;0.10;;;23.50;99.90;;;;;;4961341;28;20310;-82
2023/10/01 12:17:50;;;;;;;0.10;0.10;;;24.10;99.90;;;;;;4964187;28;20195;-82
2023/10/01 12:20:22;;;;;;;0.10;0.10;;;24.30;99.90;;;;;;4959768;28;20212;-82
2023/10/01 12:23:10;;;;;;;0.10;0.10;;;24.50;99.90;;;;;;4959049;28;20209;-82
2023/10/01 12:28:29;;;;;;;0.10;0.10;;;24.60;99.90;;;;;;4954890;28;20648;-82
2023/10/01 12:31:02;;;;;;;0.10;0.10;;;24.60;99.90;;;;;;4956706;28;20220;-82
2023/10/01 12:36:42;;;;;;;0.10;0.10;;;24.60;99.90;;;;;;4967422;28;20211;-83
2023/10/01 12:44:30;;;;;;;0.10;0.10;;;24.80;99.90;;;;;;4962353;28;20267;-82
2023/10/01 12:47:00;;;;;;;0.10;0.10;;;24.90;99.90;;;;;;4961873;28;20207;-82
2023/10/01 12:49:26;;;;;;;0.10;0.10;;;25.00;99.90;;;;;;4962544;28;20188;-82
2023/10/01 12:51:55;;;;;;;0.10;0.10;;;25.10;99.90;;;;;;4962142;28;20220;-82
2023/10/01 12:54:27;;;;;;;0.10;0.10;;;25.00;99.90;;;;;;4963538;28;20196;-82
2023/10/01 12:57:02;;;;;;;0.10;0.10;;;25.10;99.90;;;;;;4959411;28;20192;-83
2023/10/01 12:59:42;;;;;;;0.10;0.10;;;24.90;99.90;;;;;;4962227;28;20246;-83
2023/10/01 13:02:22;;;;;;;0.10;0.10;;;25.00;99.90;;;;;;4957728;28;20220;-82
2023/10/01 13:07:41;;;;;;;0.27;0.27;;;25.10;99.90;;;;;;4959865;28;20198;-82
2023/10/01 13:10:08;;;;;;;0.10;0.10;;;25.20;99.90;;;;;;4958627;28;20271;-82
2023/10/01 13:12:55;;;;;;;0.10;0.10;;;25.00;99.90;;;;;;4959946;28;20203;-82
2023/10/01 13:15:31;;;;;;;0.10;0.10;;;24.80;99.90;;;;;;4958764;28;20251;-82
2023/10/01 13:18:11;;;;;;;0.10;0.10;;;24.90;99.90;;;;;;4958683;28;20184;-82
2023/10/01 13:20:58;;;;;;;0.10;0.10;;;24.90;99.90;;;;;;4955361;28;20920;-84
2023/10/01 13:23:25;;;;;;;0.10;0.10;;;25.00;99.90;;;;;;4960285;28;20216;-83
2023/10/01 13:26:05;;;;;;;0.10;0.10;;;24.90;99.90;;;;;;4992188;28;20209;-82
2023/10/01 13:28:46;;;;;;;0.10;0.10;;;24.90;99.90;;;;;;4974940;28;20188;-82
2023/10/01 13:31:40;;;;;;;0.10;0.10;;;24.30;99.90;;;;;;4960466;28;20211;-83
2023/10/01 14:12:10;;;;;;;0.10;0.10;;;24.20;99.90;;;;;;4960970;28;21126;-82
2023/10/01 14:14:36;;;;;;;0.10;0.10;;;24.30;99.90;;;;;;4956844;28;20193;-82
2023/10/01 14:17:13;;;;;;;0.10;0.10;;;24.10;99.90;;;;;;4954449;28;20185;-82
2023/10/01 14:19:41;;;;;;;0.10;0.10;;;24.20;99.90;;;;;;4959947;28;20287;-82
2023/10/01 14:22:19;;;;;;;0.10;0.10;;;24.50;99.90;;;;;;4973734;28;20209;-82
2023/10/01 14:24:45;;;;;;;0.10;0.10;;;24.70;99.90;;;;;;4960495;28;20726;-82
2023/10/01 14:27:24;;;;;;;0.10;0.10;;;24.90;99.90;;;;;;4961472;28;20185;-81
2023/10/01 14:30:00;;;;;;;0.10;0.10;;;25.00;99.90;;;;;;4957970;28;20667;-81
2023/10/01 14:32:34;;;;;;;0.10;0.10;;;24.80;99.90;;;;;;4959757;28;20180;-81
2023/10/01 14:35:14;;;;;;;0.10;0.10;;;24.20;99.90;;;;;;4958541;28;21205;-82
2023/10/01 14:37:53;;;;;;;0.10;0.10;;;24.00;99.90;;;;;;4975128;28;20275;-81
2023/10/01 14:40:26;;;;;;;0.10;0.10;;;24.20;99.90;;;;;;4961209;28;20203;-82
2023/10/01 14:42:59;;;;;;;0.10;0.10;;;24.20;99.90;;;;;;4960615;28;20209;-81
2023/10/01 14:45:33;;;;;;;0.10;0.10;;;24.20;99.90;;;;;;4958375;28;20529;-81
2023/10/01 14:48:06;;;;;;;0.10;0.10;;;24.30;99.90;;;;;;4961633;28;20208;-81
2023/10/01 14:50:39;;;;;;;0.10;0.10;;;24.40;99.90;;;;;;4959081;28;20692;-82
2023/10/01 14:53:09;;;;;;;0.10;0.10;;;24.30;99.90;;;;;;4958050;28;20813;-82
2023/10/01 14:55:41;;;;;;;0.10;0.10;;;24.30;99.90;;;;;;4959810;28;20193;-82
2023/10/01 14:58:13;;;;;;;0.10;0.10;;;24.00;99.90;;;;;;4961308;28;20590;-82
2023/10/01 15:00:49;;;;;;;0.10;0.10;;;24.10;99.90;;;;;;4959064;28;20708;-82
2023/10/01 15:03:36;;;;;;;0.10;0.10;;;23.80;99.90;;;;;;4975699;28;20218;-81